CheckWX is a tool to help pilots better visualize weather data.  It is not intended as a substitute for an official pre-flight weather briefing.

15:27:02 UTC

KJDD METAR
Wood County Airport
Mineola/Quitman, Texas, USA
Current

12 mins ago

KJDD 171515Z AUTO 09003KT 10SM CLR 13/10 A3010 RMK AO2
Observed
Oct-17 @ 15:15 UTC
Wind
  • 090° at 3 KTS
Visibility
10 SM
Flight Rules
VFR
Cloud Levels
  • Clear skies
Temperature
13°C / 55°F
Dewpoint
10°C / 50°F
Humidity
82%
Altimeter
30.1" Hg
Pressure
1019.32 hPa
Previous

32 mins ago

KJDD 171455Z AUTO 00000KT 10SM CLR 12/09 A3011 RMK AO2
Observed
Oct-17 @ 14:55 UTC
Visibility
10 SM
Flight Rules
VFR
Cloud Levels
  • Clear skies
Temperature
12°C / 54°F
Dewpoint
C / 48°F
Humidity
82%
Altimeter
30.11" Hg
Pressure
1019.62 hPa
Previous

52 mins ago

KJDD 171435Z AUTO 00000KT 10SM CLR 11/09 A3011 RMK AO2
Observed
Oct-17 @ 14:35 UTC
Visibility
10 SM
Flight Rules
VFR
Cloud Levels
  • Clear skies
Temperature
11°C / 52°F
Dewpoint
C / 48°F
Humidity
88%
Altimeter
30.11" Hg
Pressure
1019.62 hPa